createdAt,value
2018-08-04T00:00:04.047Z,63.05
2018-08-04T00:01:04.053Z,63.53
2018-08-04T00:02:04.083Z,63.53
2018-08-04T00:03:04.067Z,63.53
2018-08-04T00:04:04.073Z,63.34
2018-08-04T00:05:04.084Z,63.43
2018-08-04T00:06:04.087Z,63.24
2018-08-04T00:07:04.094Z,63.05
2018-08-04T00:08:04.100Z,63.34
2018-08-04T00:09:04.106Z,63.53
2018-08-04T00:10:04.113Z,63.14
2018-08-04T00:11:04.123Z,63.63
2018-08-04T00:12:04.133Z,63.63
2018-08-04T00:13:04.133Z,64.01
2018-08-04T00:14:04.139Z,63.63
2018-08-04T00:15:04.145Z,63.92
2018-08-04T00:16:04.152Z,63.73
2018-08-04T00:17:04.165Z,64.40
2018-08-04T00:18:04.164Z,64.59
2018-08-04T00:19:04.170Z,64.69
2018-08-04T00:20:04.178Z,64.40
2018-08-04T00:21:04.184Z,64.89
2018-08-04T00:22:04.189Z,65.14
2018-08-04T00:23:04.197Z,65.82
2018-08-04T00:24:04.204Z,65.66
2018-08-04T00:25:04.209Z,65.43
2018-08-04T00:26:04.218Z,65.14
2018-08-04T00:27:04.220Z,65.34
2018-08-04T00:28:04.228Z,65.27
2018-08-04T00:29:04.235Z,65.92
2018-08-04T00:30:04.239Z,65.92
2018-08-04T00:31:04.247Z,65.63
2018-08-04T00:32:04.255Z,65.92
2018-08-04T00:33:04.259Z,66.11
2018-08-04T00:34:04.267Z,66.69
2018-08-04T00:35:04.271Z,66.50
2018-08-04T00:36:04.278Z,66.30
2018-08-04T00:37:04.284Z,66.69
2018-08-04T00:38:04.288Z,66.69
2018-08-04T00:39:04.294Z,67.04
2018-08-04T00:40:04.302Z,67.08
2018-08-04T00:41:04.310Z,66.85
2018-08-04T00:42:04.313Z,66.94
2018-08-04T00:43:04.321Z,67.43
2018-08-04T00:44:04.325Z,66.94
2018-08-04T00:45:04.333Z,66.94
2018-08-04T00:46:04.338Z,67.33
2018-08-04T00:47:04.344Z,67.52
2018-08-04T00:48:04.352Z,67.72
2018-08-04T00:49:04.357Z,67.82
2018-08-04T00:50:04.362Z,67.72
2018-08-04T00:51:04.368Z,67.91
2018-08-04T00:52:04.374Z,68.01
2018-08-04T00:53:04.381Z,68.40
2018-08-04T00:54:04.385Z,68.10
2018-08-04T00:55:04.392Z,68.10
2018-08-04T00:56:04.398Z,68.20
2018-08-04T00:57:04.409Z,68.01
2018-08-04T00:58:04.409Z,68.40
2018-08-04T00:59:04.416Z,68.01
2018-08-04T01:00:04.423Z,68.59
2018-08-04T01:01:04.427Z,68.40
2018-08-04T01:02:04.434Z,68.59
2018-08-04T01:03:04.438Z,68.84
2018-08-04T01:04:04.446Z,68.75
2018-08-04T01:05:04.451Z,69.23
2018-08-04T01:06:04.455Z,69.42
2018-08-04T01:07:04.462Z,69.04
2018-08-04T01:08:04.470Z,69.42
2018-08-04T01:09:04.474Z,69.32
2018-08-04T01:10:04.479Z,69.42
2018-08-04T01:11:04.485Z,70.48
2018-08-04T01:12:04.495Z,70.39
2018-08-04T01:13:04.498Z,69.81
2018-08-04T01:14:04.503Z,70.16
2018-08-04T01:15:04.510Z,70.29
2018-08-04T01:16:04.516Z,70.20
2018-08-04T01:17:04.521Z,70.97
2018-08-04T01:18:04.524Z,70.64
2018-08-04T01:19:04.531Z,70.74
2018-08-04T01:20:04.536Z,70.84
2018-08-04T01:21:04.543Z,70.74
2018-08-04T01:22:04.548Z,70.94
2018-08-04T01:23:04.556Z,70.94
2018-08-04T01:24:04.558Z,71.03
2018-08-04T01:25:04.564Z,70.94
2018-08-04T01:26:04.570Z,71.32
2018-08-04T01:27:04.576Z,71.03
2018-08-04T01:28:04.584Z,71.12
2018-08-04T01:29:04.587Z,71.03
2018-08-04T01:30:04.593Z,71.42
2018-08-04T01:31:04.598Z,71.22
2018-08-04T01:32:04.605Z,70.74
2018-08-04T01:33:04.608Z,71.80
2018-08-04T01:34:04.662Z,71.32
2018-08-04T01:35:04.620Z,71.70
2018-08-04T01:36:04.625Z,71.42
2018-08-04T01:37:04.632Z,71.61
2018-08-04T01:38:04.642Z,71.51
2018-08-04T01:39:04.643Z,72.09
2018-08-04T01:40:04.648Z,72.38
2018-08-04T01:41:04.654Z,72.19
2018-08-04T01:42:04.657Z,72.48
2018-08-04T01:43:04.664Z,72.34
2018-08-04T01:44:04.669Z,71.96
2018-08-04T01:45:04.674Z,72.38
2018-08-04T01:46:04.679Z,72.38
2018-08-04T01:47:04.688Z,72.67
2018-08-04T01:48:04.691Z,72.73
2018-08-04T01:49:04.696Z,72.83
2018-08-04T01:50:04.700Z,72.83
2018-08-04T01:51:04.706Z,73.11
2018-08-04T01:52:04.713Z,72.92
2018-08-04T01:53:04.718Z,73.11
2018-08-04T01:54:04.723Z,72.73
2018-08-04T01:55:04.727Z,72.73
2018-08-04T01:56:04.731Z,72.73
2018-08-04T01:57:04.739Z,73.11
2018-08-04T01:58:04.743Z,73.11
2018-08-04T01:59:04.795Z,73.11
2018-08-04T02:00:04.755Z,73.21
2018-08-04T02:01:04.762Z,72.73
2018-08-04T02:02:04.765Z,73.11
2018-08-04T02:03:04.771Z,73.31
2018-08-04T02:04:04.775Z,73.60
2018-08-04T02:05:04.780Z,74.27
2018-08-04T02:06:04.787Z,73.79
2018-08-04T02:07:04.791Z,73.89
2018-08-04T02:08:04.795Z,74.14
2018-08-04T02:09:04.801Z,74.18
2018-08-04T02:10:04.805Z,74.27
2018-08-04T02:11:04.813Z,74.27
2018-08-04T02:12:04.816Z,73.89
2018-08-04T02:13:04.826Z,74.18
2018-08-04T02:14:04.825Z,73.89
2018-08-04T02:15:04.831Z,73.99
2018-08-04T02:16:04.836Z,73.99
2018-08-04T02:17:04.842Z,73.69
2018-08-04T02:18:04.846Z,73.99
2018-08-04T02:19:04.852Z,74.27
2018-08-04T02:20:04.858Z,73.75
2018-08-04T02:21:04.864Z,74.33
2018-08-04T02:22:04.866Z,74.91
2018-08-04T02:23:04.875Z,74.82
2018-08-04T02:24:04.879Z,74.43
2018-08-04T02:25:04.884Z,74.82
2018-08-04T02:26:04.888Z,74.05
2018-08-04T02:27:04.893Z,74.33
2018-08-04T02:28:04.898Z,74.62
2018-08-04T02:29:04.903Z,74.91
2018-08-04T02:30:04.909Z,74.72
2018-08-04T02:31:04.914Z,74.33
2018-08-04T02:32:04.918Z,74.05
2018-08-04T02:33:04.924Z,74.91
2018-08-04T02:34:04.930Z,74.52
2018-08-04T02:35:04.937Z,75.20
2018-08-04T02:36:04.939Z,75.10
2018-08-04T02:37:04.945Z,75.40
2018-08-04T02:38:04.961Z,75.30
2018-08-04T02:39:04.954Z,75.10
2018-08-04T02:40:04.961Z,75.20
2018-08-04T02:41:04.965Z,75.49
2018-08-04T02:42:04.974Z,75.88
2018-08-04T02:43:04.975Z,75.78
2018-08-04T02:44:04.981Z,76.07
2018-08-04T02:45:04.985Z,75.88
2018-08-04T02:46:04.989Z,75.97
2018-08-04T02:47:04.995Z,75.10
2018-08-04T02:48:04.999Z,75.88
2018-08-04T02:49:05.009Z,75.10
2018-08-04T02:50:05.010Z,75.78
2018-08-04T02:51:05.015Z,76.07
2018-08-04T02:52:05.020Z,75.78
2018-08-04T02:53:05.026Z,75.78
2018-08-04T02:54:05.034Z,76.07
2018-08-04T02:55:05.035Z,76.07
2018-08-04T02:56:05.041Z,75.97
2018-08-04T02:57:05.045Z,75.88
2018-08-04T02:58:05.049Z,75.68
2018-08-04T02:59:05.063Z,75.78
2018-08-04T03:00:05.068Z,75.49
2018-08-04T03:01:05.067Z,76.07
2018-08-04T03:02:05.069Z,75.78
2018-08-04T03:03:05.076Z,76.17
2018-08-04T03:04:05.082Z,75.88
2018-08-04T03:05:05.085Z,75.40
2018-08-04T03:06:05.091Z,75.68
2018-08-04T03:07:05.100Z,76.07
2018-08-04T03:08:05.099Z,75.68
2018-08-04T03:09:05.103Z,75.59
2018-08-04T03:10:05.109Z,75.59
2018-08-04T03:11:05.115Z,75.88
2018-08-04T03:12:05.121Z,75.88
2018-08-04T03:13:05.126Z,75.59
2018-08-04T03:14:05.129Z,75.68
2018-08-04T03:15:05.133Z,75.78
2018-08-04T03:16:05.139Z,76.17
2018-08-04T03:17:05.143Z,75.88
2018-08-04T03:18:05.148Z,76.17
2018-08-04T03:19:05.153Z,76.17
2018-08-04T03:20:05.157Z,75.97
2018-08-04T03:21:05.163Z,75.97
2018-08-04T03:22:05.167Z,76.55
2018-08-04T03:23:05.172Z,76.36
2018-08-04T03:24:05.177Z,76.55
2018-08-04T03:25:05.183Z,76.75
2018-08-04T03:26:05.186Z,77.00
2018-08-04T03:27:05.194Z,76.13
2018-08-04T03:28:05.197Z,76.07
2018-08-04T03:29:05.201Z,76.17
2018-08-04T03:30:05.206Z,76.55
2018-08-04T03:31:05.212Z,76.36
2018-08-04T03:32:05.216Z,76.26
2018-08-04T03:33:05.223Z,76.45
2018-08-04T03:34:05.225Z,76.26
2018-08-04T03:35:05.231Z,75.88
2018-08-04T03:36:05.235Z,75.97
2018-08-04T03:37:05.243Z,75.97
2018-08-04T03:38:05.247Z,75.88
2018-08-04T03:39:05.250Z,75.88
2018-08-04T03:40:05.255Z,75.88
2018-08-04T03:41:05.260Z,75.30
2018-08-04T03:42:05.262Z,75.49
2018-08-04T03:43:05.269Z,75.59
2018-08-04T03:44:05.275Z,75.68
2018-08-04T03:45:05.280Z,75.59
2018-08-04T03:46:05.286Z,75.59
2018-08-04T03:47:05.289Z,75.68
2018-08-04T03:48:05.292Z,75.40
2018-08-04T03:49:05.301Z,75.59
2018-08-04T03:50:05.304Z,75.68
2018-08-04T03:51:05.311Z,75.97
2018-08-04T03:52:05.314Z,75.59
2018-08-04T03:53:05.319Z,75.59
2018-08-04T03:54:05.323Z,75.88
2018-08-04T03:55:05.328Z,75.49
2018-08-04T03:56:05.332Z,75.88
2018-08-04T03:57:05.338Z,76.07
2018-08-04T03:58:05.342Z,76.26
2018-08-04T03:59:05.348Z,76.45
2018-08-04T04:00:05.351Z,75.97
2018-08-04T04:01:05.357Z,75.88
2018-08-04T04:02:05.361Z,76.36
2018-08-04T04:03:05.367Z,76.01
2018-08-04T04:04:05.375Z,75.53
2018-08-04T04:05:05.377Z,75.34
2018-08-04T04:06:05.385Z,75.24
2018-08-04T04:07:05.387Z,75.24
2018-08-04T04:08:05.391Z,75.14
2018-08-04T04:09:05.397Z,75.43
2018-08-04T04:10:05.402Z,75.43
2018-08-04T04:11:05.405Z,75.53
2018-08-04T04:12:05.411Z,75.34
2018-08-04T04:13:05.419Z,75.24
2018-08-04T04:14:05.421Z,75.62
2018-08-04T04:15:05.427Z,75.53
2018-08-04T04:16:05.430Z,76.40
2018-08-04T04:17:05.436Z,76.65
2018-08-04T04:18:05.441Z,76.84
2018-08-04T04:19:05.446Z,76.84
2018-08-04T04:20:05.451Z,77.03
2018-08-04T04:21:05.459Z,76.55
2018-08-04T04:22:05.461Z,77.13
2018-08-04T04:23:05.465Z,76.75
2018-08-04T04:24:05.470Z,77.42
2018-08-04T04:25:05.479Z,77.51
2018-08-04T04:26:05.479Z,77.51
2018-08-04T04:27:05.497Z,77.90
2018-08-04T04:28:05.489Z,77.33
2018-08-04T04:29:05.497Z,77.42
2018-08-04T04:30:05.500Z,77.13
2018-08-04T04:31:05.502Z,77.13
2018-08-04T04:32:05.510Z,77.42
2018-08-04T04:33:05.514Z,77.51
2018-08-04T04:34:05.518Z,78.00
2018-08-04T04:35:05.523Z,77.71
2018-08-04T04:36:05.528Z,77.33
2018-08-04T04:37:05.534Z,77.81
2018-08-04T04:38:05.537Z,78.29
2018-08-04T04:39:05.542Z,78.58
2018-08-04T04:40:05.548Z,78.29
2018-08-04T04:41:05.553Z,78.67
2018-08-04T04:42:05.557Z,78.77
2018-08-04T04:43:05.561Z,78.77
2018-08-04T04:44:05.565Z,78.48
2018-08-04T04:45:05.577Z,78.67
2018-08-04T04:46:05.576Z,78.38
2018-08-04T04:47:05.582Z,78.58
2018-08-04T04:48:05.586Z,78.29
2018-08-04T04:49:05.591Z,78.38
2018-08-04T04:50:05.600Z,77.90
2018-08-04T04:51:05.599Z,77.61
2018-08-04T04:52:05.605Z,78.19
2018-08-04T04:53:05.611Z,78.38
2018-08-04T04:54:05.619Z,78.00
2018-08-04T04:55:05.619Z,78.00
2018-08-04T04:56:05.624Z,77.71
2018-08-04T04:57:05.628Z,78.19
2018-08-04T04:58:05.632Z,78.23
2018-08-04T04:59:05.637Z,78.38
2018-08-04T05:00:05.645Z,77.94
2018-08-04T05:01:05.650Z,78.03
2018-08-04T05:02:05.701Z,77.75
2018-08-04T05:03:05.658Z,77.75
2018-08-04T05:04:05.664Z,77.94
2018-08-04T05:05:05.669Z,78.03
2018-08-04T05:06:05.674Z,77.84
2018-08-04T05:07:05.679Z,77.84
2018-08-04T05:08:05.683Z,78.33
2018-08-04T05:09:05.689Z,78.13
2018-08-04T05:10:05.693Z,78.61
2018-08-04T05:11:05.698Z,77.94
2018-08-04T05:12:05.707Z,78.52
2018-08-04T05:13:05.708Z,78.81
2018-08-04T05:14:05.714Z,79.00
2018-08-04T05:15:05.723Z,78.42
2018-08-04T05:16:05.725Z,78.52
2018-08-04T05:17:05.728Z,78.71
2018-08-04T05:18:05.733Z,78.61
2018-08-04T05:19:05.736Z,78.91
2018-08-04T05:20:05.746Z,79.39
2018-08-04T05:21:05.749Z,79.10
2018-08-04T05:22:05.753Z,78.81
2018-08-04T05:23:05.758Z,79.39
2018-08-04T05:24:05.763Z,78.81
2018-08-04T05:25:05.768Z,79.77
2018-08-04T05:26:05.773Z,79.58
2018-08-04T05:27:05.782Z,79.49
2018-08-04T05:28:05.785Z,78.81
2018-08-04T05:29:05.790Z,79.33
2018-08-04T05:30:05.793Z,78.81
2018-08-04T05:31:05.800Z,79.29
2018-08-04T05:32:05.816Z,79.29
2018-08-04T05:33:05.809Z,78.56
2018-08-04T05:34:05.814Z,78.66
2018-08-04T05:35:05.819Z,78.46
2018-08-04T05:36:05.829Z,78.56
2018-08-04T05:37:05.830Z,78.66
2018-08-04T05:38:05.834Z,78.46
2018-08-04T05:39:05.840Z,78.36
2018-08-04T05:40:05.846Z,78.56
2018-08-04T05:41:05.851Z,78.46
2018-08-04T05:42:05.855Z,78.75
2018-08-04T05:43:05.862Z,78.56
2018-08-04T05:44:05.867Z,78.85
2018-08-04T05:45:05.872Z,78.85
2018-08-04T05:46:05.876Z,77.98
2018-08-04T05:47:05.882Z,78.02
2018-08-04T05:48:05.887Z,77.98
2018-08-04T05:49:05.892Z,77.50
2018-08-04T05:50:05.970Z,77.63
2018-08-04T05:51:05.904Z,77.34
2018-08-04T05:52:05.909Z,77.53
2018-08-04T05:53:05.914Z,77.15
2018-08-04T05:54:05.919Z,77.34
2018-08-04T05:55:05.924Z,76.76
2018-08-04T05:56:05.930Z,77.05
2018-08-04T05:57:05.936Z,76.86
2018-08-04T05:58:05.999Z,76.76
2018-08-04T05:59:05.949Z,77.25
2018-08-04T06:00:05.952Z,77.44
2018-08-04T06:01:05.960Z,77.25
2018-08-04T06:02:05.963Z,77.28
2018-08-04T06:03:05.969Z,77.48
2018-08-04T06:04:05.976Z,76.70
2018-08-04T06:05:05.982Z,75.64
2018-08-04T06:06:05.985Z,76.03
2018-08-04T06:07:05.993Z,76.32
2018-08-04T06:08:05.999Z,76.22
2018-08-04T06:09:06.004Z,75.78
2018-08-04T06:10:06.035Z,75.58
2018-08-04T06:11:06.018Z,75.04
2018-08-04T06:12:06.023Z,74.55
2018-08-04T06:13:06.028Z,74.55
2018-08-04T06:14:06.033Z,74.55
2018-08-04T06:15:06.038Z,74.36
2018-08-04T06:16:06.046Z,74.01
2018-08-04T06:17:06.053Z,74.01
2018-08-04T06:18:06.057Z,73.14
2018-08-04T06:19:06.065Z,72.95
2018-08-04T06:20:06.071Z,73.04
2018-08-04T06:21:06.076Z,73.14
2018-08-04T06:22:06.096Z,72.17
2018-08-04T06:23:06.088Z,71.53
2018-08-04T06:24:06.095Z,71.78
2018-08-04T06:25:06.115Z,71.53
2018-08-04T06:26:06.108Z,71.14
2018-08-04T06:27:06.115Z,70.95
2018-08-04T06:28:06.127Z,70.86
2018-08-04T06:29:06.129Z,70.01
2018-08-04T06:30:06.135Z,70.47
2018-08-04T06:31:06.141Z,70.37
2018-08-04T06:32:06.147Z,70.40
2018-08-04T06:33:06.156Z,70.01
2018-08-04T06:34:06.166Z,69.63
2018-08-04T06:35:06.170Z,69.63
2018-08-04T06:36:06.176Z,69.15
2018-08-04T06:37:06.182Z,69.53
2018-08-04T06:38:06.189Z,69.53
2018-08-04T06:39:06.195Z,69.53
2018-08-04T06:40:06.203Z,69.24
2018-08-04T06:41:06.209Z,69.73
2018-08-04T06:42:06.228Z,69.43
2018-08-04T06:43:06.223Z,69.63
2018-08-04T06:44:06.232Z,69.82
2018-08-04T06:45:06.239Z,70.40
2018-08-04T06:46:06.245Z,70.31
2018-08-04T06:47:06.252Z,71.08
2018-08-04T06:48:06.259Z,70.89
2018-08-04T06:49:06.267Z,70.86
2018-08-04T06:50:06.274Z,71.04
2018-08-04T06:51:06.281Z,71.62
2018-08-04T06:52:06.289Z,72.02
2018-08-04T06:53:06.295Z,71.92
2018-08-04T06:54:06.301Z,72.50
2018-08-04T06:55:06.310Z,72.40
2018-08-04T06:56:06.318Z,72.30
2018-08-04T06:57:06.324Z,72.30
2018-08-04T06:58:06.331Z,72.11
2018-08-04T06:59:06.339Z,72.79
2018-08-04T07:00:06.345Z,72.89
2018-08-04T07:01:06.354Z,73.18
2018-08-04T07:02:06.360Z,72.98
2018-08-04T07:03:06.366Z,73.18
2018-08-04T07:04:06.376Z,73.66
2018-08-04T07:05:06.386Z,73.75
2018-08-04T07:06:06.389Z,73.66
2018-08-04T07:07:06.397Z,73.08
2018-08-04T07:08:06.404Z,73.47
2018-08-04T07:09:06.411Z,72.79
2018-08-04T07:10:06.418Z,73.18
2018-08-04T07:11:06.426Z,73.18
2018-08-04T07:12:06.433Z,73.18
2018-08-04T07:13:06.445Z,73.57
2018-08-04T07:14:06.454Z,74.30
2018-08-04T07:15:06.454Z,74.43
2018-08-04T07:16:06.464Z,74.05
2018-08-04T07:17:06.469Z,74.05
2018-08-04T07:18:06.476Z,72.98
2018-08-04T07:19:06.483Z,73.47
2018-08-04T07:20:06.491Z,72.69
2018-08-04T07:21:06.498Z,72.40
2018-08-04T07:22:06.506Z,72.44
2018-08-04T07:23:06.517Z,72.44
2018-08-04T07:24:06.520Z,72.92
2018-08-04T07:25:06.529Z,72.15
2018-08-04T07:26:06.534Z,71.95
2018-08-04T07:27:06.543Z,72.44
2018-08-04T07:28:06.553Z,71.66
2018-08-04T07:29:06.659Z,72.53
2018-08-04T07:30:06.563Z,72.83
2018-08-04T07:31:06.571Z,72.44
2018-08-04T07:32:06.579Z,72.11
2018-08-04T07:33:06.633Z,72.50
2018-08-04T07:34:06.594Z,72.05
2018-08-04T07:35:06.600Z,72.05
2018-08-04T07:36:06.607Z,71.95
2018-08-04T07:37:06.616Z,71.95
2018-08-04T07:38:06.624Z,71.86
2018-08-04T07:39:06.629Z,71.56
2018-08-04T07:40:06.637Z,72.05
2018-08-04T07:41:06.711Z,70.79
2018-08-04T07:42:06.654Z,70.79
2018-08-04T07:43:06.658Z,71.08
2018-08-04T07:44:06.666Z,70.34
2018-08-04T07:45:06.673Z,70.63
2018-08-04T07:46:06.725Z,70.05
2018-08-04T07:47:06.693Z,69.76
2018-08-04T07:48:06.693Z,68.99
2018-08-04T07:49:06.745Z,68.21
2018-08-04T07:50:06.727Z,68.15
2018-08-04T07:51:06.715Z,67.27
2018-08-04T07:52:06.723Z,67.95
2018-08-04T07:53:06.730Z,67.66
2018-08-04T07:54:06.737Z,66.89
2018-08-04T07:55:06.744Z,67.37
2018-08-04T07:56:06.753Z,67.47
2018-08-04T07:57:06.759Z,66.82
2018-08-04T07:58:06.765Z,66.05
2018-08-04T07:59:06.776Z,65.11
2018-08-04T08:00:06.780Z,64.23
2018-08-04T08:01:06.789Z,63.88
2018-08-04T08:02:06.795Z,63.59
2018-08-04T08:03:06.803Z,62.84
2018-08-04T08:04:06.813Z,61.38
2018-08-04T08:05:06.855Z,58.22
2018-08-04T08:06:06.829Z,55.41
2018-08-04T08:07:06.841Z,52.83
2018-08-04T08:08:06.849Z,50.73
2018-08-04T08:09:06.860Z,50.88
2018-08-04T08:10:06.870Z,51.37
2018-08-04T08:11:06.962Z,50.54
2018-08-04T08:12:06.898Z,48.90
2018-08-04T08:13:06.908Z,48.24
2018-08-04T08:14:06.919Z,48.24
2018-08-04T08:15:06.932Z,48.21
2018-08-04T08:16:06.945Z,47.89
2018-08-04T08:17:06.959Z,46.79
2018-08-04T08:18:06.974Z,46.03
2018-08-04T08:19:06.988Z,45.44
2018-08-04T08:20:07.007Z,45.17
2018-08-04T08:21:07.018Z,44.68
2018-08-04T08:22:07.031Z,44.60
2018-08-04T08:23:07.114Z,44.85
2018-08-04T08:24:07.064Z,45.83
2018-08-04T08:25:07.080Z,44.48
2018-08-04T08:26:07.094Z,44.33
2018-08-04T08:27:07.110Z,43.92
2018-08-04T08:28:07.126Z,43.35
2018-08-04T08:29:07.142Z,42.39
2018-08-04T08:30:07.157Z,42.10
2018-08-04T08:31:07.193Z,43.99
2018-08-04T08:32:07.190Z,44.02
2018-08-04T08:33:07.204Z,44.31
2018-08-04T08:34:07.219Z,43.08
2018-08-04T08:35:07.237Z,42.68
2018-08-04T08:36:07.253Z,41.61
2018-08-04T08:37:07.268Z,42.21
2018-08-04T08:38:07.285Z,41.61
2018-08-04T08:39:07.300Z,42.47
2018-08-04T08:40:07.316Z,42.58
2018-08-04T08:41:07.333Z,42.29
2018-08-04T08:42:07.348Z,42.18
2018-08-04T08:43:07.364Z,41.61
2018-08-04T08:44:07.381Z,42.62
2018-08-04T08:45:07.433Z,43.98
2018-08-04T08:46:07.414Z,43.43
2018-08-04T08:47:07.433Z,42.74
2018-08-04T08:48:07.445Z,43.82
2018-08-04T08:49:07.463Z,44.29
2018-08-04T08:50:07.478Z,43.92
2018-08-04T08:51:07.494Z,42.68
2018-08-04T08:52:07.511Z,42.21
2018-08-04T08:53:07.539Z,40.86
2018-08-04T08:54:07.667Z,41.14
2018-08-04T08:55:07.559Z,41.63
2018-08-04T08:56:07.580Z,40.47
2018-08-04T08:57:07.592Z,39.90
2018-08-04T08:58:07.609Z,39.40
2018-08-04T08:59:07.626Z,39.13
2018-08-04T09:00:07.643Z,39.13
2018-08-04T09:01:07.659Z,39.74
2018-08-04T09:02:07.675Z,41.56
2018-08-04T09:03:07.694Z,43.09
2018-08-04T09:04:07.708Z,42.84
2018-08-04T09:05:07.725Z,42.57
2018-08-04T09:06:07.742Z,42.57
2018-08-04T09:07:07.759Z,43.72
2018-08-04T09:08:07.775Z,42.68
2018-08-04T09:09:07.792Z,41.90
2018-08-04T09:10:07.808Z,41.72
2018-08-04T09:11:07.824Z,41.45
2018-08-04T09:12:07.843Z,41.27
2018-08-04T09:13:07.859Z,39.84
2018-08-04T09:14:07.875Z,40.01
2018-08-04T09:15:07.892Z,39.47
2018-08-04T09:16:07.910Z,39.82
2018-08-04T09:17:07.927Z,40.74
2018-08-04T09:18:07.944Z,41.06
2018-08-04T09:19:07.961Z,40.88
2018-08-04T09:20:07.976Z,41.90
2018-08-04T09:21:07.992Z,42.72
2018-08-04T09:22:08.012Z,40.98
2018-08-04T09:23:08.030Z,40.11
2018-08-04T09:24:08.044Z,39.92
2018-08-04T09:25:08.063Z,39.42
2018-08-04T09:26:08.078Z,38.95
2018-08-04T09:27:08.101Z,38.10
2018-08-04T09:28:08.113Z,38.20
2018-08-04T09:29:08.130Z,37.51
2018-08-04T09:30:08.145Z,38.76
2018-08-04T09:31:08.163Z,39.80
2018-08-04T09:32:08.180Z,41.31
2018-08-04T09:33:08.199Z,43.77
2018-08-04T09:34:08.214Z,44.85
2018-08-04T09:35:08.232Z,43.92
2018-08-04T09:36:08.248Z,42.29
2018-08-04T09:37:08.265Z,42.32
2018-08-04T09:38:08.283Z,41.17
2018-08-04T09:39:08.332Z,40.69
2018-08-04T09:40:08.317Z,40.31
2018-08-04T09:41:08.333Z,39.62
2018-08-04T09:42:08.349Z,40.00
2018-08-04T09:43:08.367Z,39.17
2018-08-04T09:44:08.383Z,38.20
2018-08-04T09:45:08.402Z,37.61
2018-08-04T09:46:08.417Z,36.74
2018-08-04T09:47:08.434Z,36.55
2018-08-04T09:48:08.451Z,37.14
2018-08-04T09:49:08.469Z,38.95
2018-08-04T09:50:08.486Z,38.87
2018-08-04T09:51:08.502Z,39.52
2018-08-04T09:52:08.520Z,40.21
2018-08-04T09:53:08.538Z,39.74
2018-08-04T09:54:08.553Z,39.03
2018-08-04T09:55:08.570Z,40.17
2018-08-04T09:56:08.588Z,41.16
2018-08-04T09:57:08.605Z,41.78
2018-08-04T09:58:08.620Z,42.21
2018-08-04T09:59:08.639Z,40.51
2018-08-04T10:00:08.655Z,39.17
2018-08-04T10:01:08.672Z,38.40
2018-08-04T10:02:08.689Z,37.61
2018-08-04T10:03:08.706Z,38.17
2018-08-04T10:04:08.724Z,39.42
2018-08-04T10:05:08.766Z,39.05
2018-08-04T10:06:08.757Z,38.10
2018-08-04T10:07:08.775Z,38.56
2018-08-04T10:08:08.792Z,38.38
2018-08-04T10:09:08.809Z,37.91
2018-08-04T10:10:08.824Z,37.02
2018-08-04T10:11:08.889Z,37.04
2018-08-04T10:12:08.859Z,35.79
2018-08-04T10:13:08.877Z,35.41
2018-08-04T10:14:08.893Z,34.34
2018-08-04T10:15:08.911Z,34.27
2018-08-04T10:16:08.927Z,34.48
2018-08-04T10:17:08.943Z,33.97
2018-08-04T10:18:08.961Z,36.10
2018-08-04T10:19:08.978Z,38.76
2018-08-04T10:20:09.005Z,37.51
2018-08-04T10:21:09.013Z,36.07
2018-08-04T10:22:09.029Z,35.00
2018-08-04T10:23:09.049Z,35.48
2018-08-04T10:24:09.063Z,38.01
2018-08-04T10:25:09.082Z,40.74
2018-08-04T10:26:09.144Z,40.08
2018-08-04T10:27:09.119Z,39.52
2018-08-04T10:28:09.136Z,38.70
2018-08-04T10:29:09.151Z,37.35
2018-08-04T10:30:09.166Z,36.92
2018-08-04T10:31:09.182Z,37.45
2018-08-04T10:32:09.284Z,36.65
2018-08-04T10:33:09.220Z,37.10
2018-08-04T10:34:09.233Z,37.30
2018-08-04T10:35:09.281Z,38.46
2018-08-04T10:36:09.266Z,37.95
2018-08-04T10:37:09.286Z,39.19
2018-08-04T10:38:09.299Z,39.31
2018-08-04T10:39:09.317Z,40.03
2018-08-04T10:40:09.333Z,40.43
2018-08-04T10:41:09.352Z,40.55
2018-08-04T10:42:09.366Z,41.02
2018-08-04T10:43:09.386Z,41.11
2018-08-04T10:44:09.399Z,40.08
2018-08-04T10:45:09.416Z,39.98
2018-08-04T10:46:09.432Z,40.06
2018-08-04T10:47:09.447Z,39.70
2018-08-04T10:48:09.464Z,39.66
2018-08-04T10:49:09.482Z,40.08
2018-08-04T10:50:09.496Z,40.35
2018-08-04T10:51:09.513Z,40.13
2018-08-04T10:52:09.529Z,40.63
2018-08-04T10:53:09.545Z,39.86
2018-08-04T10:54:09.561Z,39.48
2018-08-04T10:55:09.575Z,39.39
2018-08-04T10:56:09.591Z,38.85
2018-08-04T10:57:09.610Z,38.90
2018-08-04T10:58:09.624Z,38.44
2018-08-04T10:59:09.639Z,37.30
2018-08-04T11:00:09.655Z,36.71
2018-08-04T11:01:09.671Z,36.61
2018-08-04T11:02:09.687Z,36.57
2018-08-04T11:03:09.701Z,37.54
2018-08-04T11:04:09.717Z,37.54
2018-08-04T11:05:09.733Z,38.32
2018-08-04T11:06:09.748Z,37.55
2018-08-04T11:07:09.763Z,37.77
2018-08-04T11:08:09.780Z,37.49
2018-08-04T11:09:09.798Z,37.38
2018-08-04T11:10:09.813Z,38.23
2018-08-04T11:11:09.827Z,38.93
2018-08-04T11:12:09.843Z,38.72
2018-08-04T11:13:09.858Z,38.92
2018-08-04T11:14:09.872Z,38.44
2018-08-04T11:15:09.889Z,38.46
2018-08-04T11:16:09.904Z,38.76
2018-08-04T11:17:09.919Z,39.47
2018-08-04T11:18:09.965Z,40.45
2018-08-04T11:19:09.949Z,40.72
2018-08-04T11:20:09.965Z,40.82
2018-08-04T11:21:10.010Z,40.43
2018-08-04T11:22:09.995Z,40.33
2018-08-04T11:23:10.009Z,40.82
2018-08-04T11:24:10.046Z,43.85
2018-08-04T11:25:10.039Z,45.47
2018-08-04T11:26:10.054Z,45.76
2018-08-04T11:27:10.069Z,46.08
2018-08-04T11:28:10.082Z,45.94
2018-08-04T11:29:10.098Z,47.09
2018-08-04T11:30:10.112Z,47.38
2018-08-04T11:31:10.126Z,46.92
2018-08-04T11:32:10.141Z,46.82
2018-08-04T11:33:10.154Z,46.82
2018-08-04T11:34:10.167Z,47.72
2018-08-04T11:35:10.182Z,46.84
2018-08-04T11:36:10.195Z,46.16
2018-08-04T11:37:10.209Z,45.76
2018-08-04T11:38:10.223Z,46.16
2018-08-04T11:39:10.238Z,45.97
2018-08-04T11:40:10.252Z,46.36
2018-08-04T11:41:10.268Z,46.36
2018-08-04T11:42:10.277Z,46.62
2018-08-04T11:43:10.291Z,46.92
2018-08-04T11:44:10.306Z,47.70
2018-08-04T11:45:10.319Z,46.94
2018-08-04T11:46:10.331Z,46.75
2018-08-04T11:47:10.345Z,45.94
2018-08-04T11:48:10.358Z,45.75
2018-08-04T11:49:10.372Z,45.82
2018-08-04T11:50:10.389Z,45.92
2018-08-04T11:51:10.397Z,45.92
2018-08-04T11:52:10.412Z,46.11
2018-08-04T11:53:10.423Z,46.14
2018-08-04T11:54:10.435Z,45.75
2018-08-04T11:55:10.448Z,45.28
2018-08-04T11:56:10.462Z,44.98
2018-08-04T11:57:10.475Z,45.18
2018-08-04T11:58:10.486Z,45.04
2018-08-04T11:59:10.499Z,46.01
2018-08-04T12:00:10.512Z,46.62
2018-08-04T12:01:10.524Z,46.89
2018-08-04T12:02:10.537Z,47.02
2018-08-04T12:03:10.553Z,46.89
2018-08-04T12:04:10.563Z,47.36
2018-08-04T12:05:10.574Z,47.75
2018-08-04T12:06:10.588Z,48.83
2018-08-04T12:07:10.598Z,48.63
2018-08-04T12:08:10.611Z,47.67
2018-08-04T12:09:10.623Z,47.80
2018-08-04T12:10:10.637Z,46.72
2018-08-04T12:11:10.704Z,46.72
2018-08-04T12:12:10.665Z,46.53
2018-08-04T12:13:10.672Z,47.02
2018-08-04T12:14:10.684Z,46.80
2018-08-04T12:15:10.696Z,47.66
2018-08-04T12:16:10.717Z,47.46
2018-08-04T12:17:10.727Z,47.66
2018-08-04T12:18:10.784Z,47.21
2018-08-04T12:19:10.744Z,46.53
2018-08-04T12:20:10.756Z,45.76
2018-08-04T12:21:10.769Z,45.47
2018-08-04T12:22:10.783Z,45.57
2018-08-04T12:23:10.794Z,45.94
2018-08-04T12:24:10.805Z,46.82
2018-08-04T12:25:10.818Z,47.09
2018-08-04T12:26:10.827Z,46.53
2018-08-04T12:27:10.841Z,45.94
2018-08-04T12:28:10.852Z,45.76
2018-08-04T12:29:10.864Z,45.18
2018-08-04T12:30:10.875Z,44.98
2018-08-04T12:31:10.888Z,44.69
2018-08-04T12:32:10.900Z,44.69
2018-08-04T12:33:10.915Z,44.69
2018-08-04T12:34:10.929Z,44.71
2018-08-04T12:35:10.938Z,44.30
2018-08-04T12:36:10.947Z,45.10
2018-08-04T12:37:10.959Z,44.30
2018-08-04T12:38:10.973Z,44.87
2018-08-04T12:39:10.982Z,45.45
2018-08-04T12:40:10.992Z,45.57
2018-08-04T12:41:11.006Z,45.45
2018-08-04T12:42:11.017Z,45.84
2018-08-04T12:43:11.030Z,45.75
2018-08-04T12:44:11.041Z,45.37
2018-08-04T12:45:11.054Z,44.59
2018-08-04T12:46:11.064Z,43.91
2018-08-04T12:47:11.076Z,43.63
2018-08-04T12:48:11.089Z,43.32
2018-08-04T12:49:11.100Z,43.32
2018-08-04T12:50:11.111Z,43.81
2018-08-04T12:51:11.123Z,43.81
2018-08-04T12:52:11.137Z,43.81